Saint-Joseph-De-Sorel, Canada
Current Conditions -  °F | °C
As of 1:00 AM on Monday 22 Dec 2014 (Local Time) from CYRQ Reporting Station
Overcast Overcast  
Wind Chill: 16°   Ceiling: 1200
Heat Index: 16°   Visibility: 9mi
Dew Point: 12°   Wind: 3mph
Humidity: 86%   Direction: 20°NNE
Pressure: 30.42"   Gusts: NA
Location:  46.03°N, 73.13°W
Report Text: CYRQ 220600Z AUTO 02003KT 9SM OVC012 M09/M11 A3042 RMK SLP305
Loading
Personal Weather Stations






























Interactive Weather Map New forecast layout! Learn more

10-Day Weather Forecast

Advertisements
Track Severe Weather on mobile